createdAt,value
2022-08-26T00:04:42.135Z,26.14
2022-08-26T00:09:47.317Z,26.12
2022-08-26T00:14:52.768Z,26.05
2022-08-26T00:19:56.351Z,25.98
2022-08-26T00:24:59.920Z,25.94
2022-08-26T00:30:09.165Z,25.67
2022-08-26T00:35:14.078Z,25.52
2022-08-26T00:40:22.150Z,25.41
2022-08-26T00:45:27.731Z,25.29
2022-08-26T00:50:34.853Z,25.25
2022-08-26T00:55:41.548Z,25.30
2022-08-26T01:00:47.831Z,25.29
2022-08-26T01:05:52.405Z,25.21
2022-08-26T01:11:00.897Z,25.20
2022-08-26T01:16:10.094Z,25.14
2022-08-26T01:21:22.221Z,25.08
2022-08-26T01:26:30.976Z,24.90
2022-08-26T01:31:41.162Z,24.75
2022-08-26T01:36:49.218Z,24.64
2022-08-26T01:41:58.432Z,24.48
2022-08-26T01:47:09.833Z,24.28
2022-08-26T01:52:16.518Z,24.23
2022-08-26T01:57:22.577Z,24.02
2022-08-26T02:02:27.714Z,23.94
2022-08-26T02:07:33.265Z,23.71
2022-08-26T02:12:39.069Z,23.32
2022-08-26T02:17:46.393Z,23.08
2022-08-26T02:22:51.255Z,22.84
2022-08-26T02:27:56.532Z,22.71
2022-08-26T02:33:00.487Z,22.65
2022-08-26T02:38:09.856Z,22.39
2022-08-26T02:43:16.397Z,21.72
2022-08-26T02:48:21.538Z,21.98
2022-08-26T02:53:25.433Z,21.54
2022-08-26T02:58:30.899Z,21.31
2022-08-26T03:03:33.850Z,21.13
2022-08-26T03:08:37.458Z,20.93
2022-08-26T03:13:42.963Z,20.62
2022-08-26T03:18:52.006Z,20.47
2022-08-26T03:23:58.629Z,20.34
2022-08-26T03:29:04.531Z,20.30
2022-08-26T03:34:08.145Z,20.39
2022-08-26T03:39:12.941Z,20.10
2022-08-26T03:44:18.136Z,19.91
2022-08-26T03:49:21.707Z,19.83
2022-08-26T03:54:25.350Z,19.56
2022-08-26T03:59:30.981Z,19.45
2022-08-26T04:04:35.218Z,19.43
2022-08-26T04:09:38.813Z,19.39
2022-08-26T04:14:45.035Z,19.18
2022-08-26T04:19:48.738Z,19.16
2022-08-26T04:24:52.325Z,19.04
2022-08-26T04:29:57.551Z,18.87
2022-08-26T04:35:01.809Z,18.79
2022-08-26T04:40:06.974Z,18.69
2022-08-26T04:45:13.407Z,18.49
2022-08-26T04:50:16.983Z,18.32
2022-08-26T04:55:21.930Z,18.30
2022-08-26T05:00:47.738Z,18.26
2022-08-26T05:05:51.815Z,18.20
2022-08-26T05:10:56.347Z,18.09
2022-08-26T05:16:04.282Z,18.09
2022-08-26T05:21:08.949Z,18.01
2022-08-26T05:26:12.566Z,17.87
2022-08-26T05:31:23.807Z,17.88
2022-08-26T05:36:28.902Z,17.76
2022-08-26T05:41:36.456Z,17.67
2022-08-26T05:46:43.980Z,17.66
2022-08-26T05:51:48.076Z,17.59
2022-08-26T05:56:52.048Z,17.52
2022-08-26T06:01:57.360Z,17.37
2022-08-26T06:07:01.993Z,17.47
2022-08-26T06:12:06.432Z,17.44
2022-08-26T06:17:11.661Z,17.25
2022-08-26T06:22:21.901Z,17.15
2022-08-26T06:27:32.061Z,16.94
2022-08-26T06:32:38.138Z,16.99
2022-08-26T06:37:41.767Z,17.00
2022-08-26T06:42:45.927Z,16.91
2022-08-26T06:47:51.218Z,16.85
2022-08-26T06:52:55.115Z,16.80
2022-08-26T06:58:00.362Z,16.71
2022-08-26T07:03:06.480Z,16.70
2022-08-26T07:08:11.438Z,16.67
2022-08-26T07:13:15.528Z,16.60
2022-08-26T07:18:20.778Z,16.58
2022-08-26T07:23:26.586Z,16.56
2022-08-26T07:28:30.928Z,16.55
2022-08-26T07:33:36.673Z,16.65
2022-08-26T07:38:40.090Z,16.52
2022-08-26T07:43:44.255Z,16.61
2022-08-26T07:48:51.263Z,16.76
2022-08-26T07:53:55.626Z,16.83
2022-08-26T07:58:59.199Z,16.79
2022-08-26T08:04:05.264Z,16.62
2022-08-26T08:09:12.248Z,16.56
2022-08-26T08:14:15.911Z,16.70
2022-08-26T08:19:23.141Z,16.76
2022-08-26T08:24:27.525Z,16.74
2022-08-26T08:29:31.401Z,16.62
2022-08-26T08:34:38.063Z,16.57
2022-08-26T08:39:41.794Z,16.57
2022-08-26T08:44:52.001Z,16.59
2022-08-26T08:50:03.431Z,16.55
2022-08-26T08:55:10.395Z,16.56
2022-08-26T09:00:19.444Z,16.48
2022-08-26T09:05:27.712Z,16.50
2022-08-26T09:10:36.153Z,16.47
2022-08-26T09:15:51.452Z,16.43
2022-08-26T09:20:59.898Z,16.45
2022-08-26T09:26:13.965Z,16.39
2022-08-26T09:31:24.014Z,16.31
2022-08-26T09:36:41.026Z,16.43
2022-08-26T09:41:45.126Z,16.36
2022-08-26T09:46:56.134Z,16.22
2022-08-26T09:52:18.500Z,16.12
2022-08-26T09:57:27.191Z,16.12
2022-08-26T10:02:41.317Z,16.12
2022-08-26T10:07:53.339Z,16.15
2022-08-26T10:13:04.020Z,16.37
2022-08-26T10:18:15.624Z,16.46
2022-08-26T10:23:25.410Z,16.50
2022-08-26T10:28:36.180Z,16.47
2022-08-26T10:33:39.905Z,16.55
2022-08-26T10:38:45.318Z,16.48
2022-08-26T10:43:55.820Z,16.30
2022-08-26T10:49:03.184Z,16.20
2022-08-26T10:54:12.797Z,16.03
2022-08-26T10:59:24.866Z,16.05
2022-08-26T11:04:48.471Z,16.15
2022-08-26T11:09:54.092Z,16.11
2022-08-26T11:14:59.151Z,16.03
2022-08-26T11:20:07.464Z,16.16
2022-08-26T11:25:16.200Z,16.16
2022-08-26T11:30:44.218Z,15.97
2022-08-26T11:35:50.535Z,15.88
2022-08-26T11:41:09.485Z,16.01
2022-08-26T11:46:23.856Z,15.96
2022-08-26T11:51:29.067Z,15.84
2022-08-26T11:56:36.600Z,15.67
2022-08-26T12:01:44.164Z,15.70
2022-08-26T12:06:51.106Z,15.91
2022-08-26T12:12:12.433Z,16.00
2022-08-26T12:17:18.209Z,16.02
2022-08-26T12:22:29.124Z,16.01
2022-08-26T12:27:37.794Z,16.00
2022-08-26T12:32:56.626Z,16.10
2022-08-26T12:38:02.132Z,16.11
2022-08-26T12:43:08.856Z,16.11
2022-08-26T12:48:21.721Z,16.23
2022-08-26T12:53:31.151Z,16.19
2022-08-26T12:58:38.259Z,16.13
2022-08-26T13:03:44.895Z,16.10
2022-08-26T13:08:50.194Z,16.22
2022-08-26T13:13:58.236Z,16.17
2022-08-26T13:19:05.136Z,16.07
2022-08-26T13:24:10.691Z,16.04
2022-08-26T13:29:16.140Z,16.07
2022-08-26T13:34:21.787Z,16.11
2022-08-26T13:39:26.490Z,15.99
2022-08-26T13:44:31.763Z,15.92
2022-08-26T13:49:35.375Z,15.92
2022-08-26T13:54:39.038Z,15.98
2022-08-26T13:59:45.172Z,15.91
2022-08-26T14:04:48.750Z,15.94
2022-08-26T14:09:52.366Z,15.92
2022-08-26T14:14:57.580Z,16.00
2022-08-26T14:20:01.217Z,16.05
2022-08-26T14:25:05.216Z,15.92
2022-08-26T14:30:12.624Z,16.01
2022-08-26T14:35:19.194Z,16.03
2022-08-26T14:40:24.342Z,15.88
2022-08-26T14:45:30.029Z,15.95
2022-08-26T14:50:33.660Z,16.08
2022-08-26T14:55:39.639Z,16.21
2022-08-26T15:00:45.015Z,16.23
2022-08-26T15:05:48.624Z,16.09
2022-08-26T15:10:52.218Z,16.15
2022-08-26T15:15:57.513Z,16.27
2022-08-26T15:21:02.657Z,16.40
2022-08-26T15:26:08.703Z,16.71
2022-08-26T15:31:14.393Z,16.94
2022-08-26T15:36:17.986Z,17.05
2022-08-26T15:41:21.701Z,17.21
2022-08-26T15:46:27.248Z,17.50
2022-08-26T15:51:33.072Z,17.61
2022-08-26T15:56:38.373Z,17.81
2022-08-26T16:01:44.332Z,18.18
2022-08-26T16:06:47.858Z,18.46
2022-08-26T16:11:51.402Z,18.94
2022-08-26T16:16:57.999Z,19.21
2022-08-26T16:22:01.606Z,19.37
2022-08-26T16:27:05.330Z,19.54
2022-08-26T16:32:10.637Z,20.11
2022-08-26T16:37:14.746Z,20.79
2022-08-26T16:42:18.363Z,21.54
2022-08-26T16:47:23.617Z,22.17
2022-08-26T16:52:30.149Z,21.75
2022-08-26T16:57:37.229Z,22.78
2022-08-26T17:02:42.576Z,23.44
2022-08-26T17:07:45.465Z,23.68
2022-08-26T17:12:49.086Z,23.93
2022-08-26T17:17:54.781Z,24.46
2022-08-26T17:22:58.495Z,24.74
2022-08-26T17:28:02.113Z,25.02
2022-08-26T17:33:10.623Z,25.07
2022-08-26T17:38:14.683Z,25.24
2022-08-26T17:43:18.682Z,25.33
2022-08-26T17:48:23.907Z,25.35
2022-08-26T17:53:29.059Z,25.48
2022-08-26T17:58:32.683Z,25.63
2022-08-26T18:03:40.349Z,25.61
2022-08-26T18:08:44.079Z,25.89
2022-08-26T18:13:48.185Z,26.10
2022-08-26T18:18:53.713Z,25.87
2022-08-26T18:23:57.384Z,26.13
2022-08-26T18:29:01.159Z,26.59
2022-08-26T18:34:06.395Z,26.82
2022-08-26T18:39:10.663Z,26.57
2022-08-26T18:44:15.456Z,26.69
2022-08-26T18:49:20.818Z,26.74
2022-08-26T18:54:24.428Z,27.18
2022-08-26T18:59:29.486Z,27.39
2022-08-26T19:04:36.704Z,26.99
2022-08-26T19:09:40.266Z,26.89
2022-08-26T19:14:45.353Z,27.07
2022-08-26T19:19:50.555Z,27.28
2022-08-26T19:24:54.113Z,27.23
2022-08-26T19:29:57.743Z,27.31
2022-08-26T19:35:02.992Z,27.42
2022-08-26T19:40:07.269Z,27.50
2022-08-26T19:45:24.853Z,27.51
2022-08-26T19:50:33.081Z,27.48
2022-08-26T19:55:36.692Z,27.51
2022-08-26T20:00:40.263Z,27.47
2022-08-26T20:05:46.491Z,27.92
2022-08-26T20:10:50.103Z,28.01
2022-08-26T20:15:54.379Z,27.85
2022-08-26T20:21:00.537Z,28.00
2022-08-26T20:26:04.375Z,27.93
2022-08-26T20:31:08.131Z,27.99
2022-08-26T20:36:16.030Z,27.77
2022-08-26T20:41:22.430Z,27.70
2022-08-26T20:46:26.380Z,27.96
2022-08-26T20:51:33.961Z,27.90
2022-08-26T20:56:37.738Z,27.92
2022-08-26T21:01:42.550Z,27.59
2022-08-26T21:06:52.814Z,27.74
2022-08-26T21:11:56.850Z,27.69
2022-08-26T21:17:00.433Z,27.59
2022-08-26T21:22:05.766Z,27.67
2022-08-26T21:27:09.358Z,27.99
2022-08-26T21:32:13.065Z,27.92
2022-08-26T21:37:21.037Z,27.98
2022-08-26T21:42:25.878Z,28.13
2022-08-26T21:47:29.808Z,28.41
2022-08-26T21:52:35.073Z,28.81
2022-08-26T21:57:38.676Z,29.31
2022-08-26T22:02:42.360Z,29.55
2022-08-26T22:07:47.731Z,29.71
2022-08-26T22:12:51.284Z,29.59
2022-08-26T22:17:54.869Z,29.58
2022-08-26T22:23:00.509Z,29.82
2022-08-26T22:28:04.874Z,29.86
2022-08-26T22:33:08.478Z,29.81
2022-08-26T22:38:14.462Z,29.74
2022-08-26T22:43:18.667Z,29.59
2022-08-26T22:48:22.588Z,29.56
2022-08-26T22:53:29.015Z,29.47
2022-08-26T22:58:36.508Z,29.55
2022-08-26T23:03:40.794Z,29.32
2022-08-26T23:08:46.459Z,29.47
2022-08-26T23:13:50.050Z,29.19
2022-08-26T23:18:53.645Z,28.99
2022-08-26T23:23:58.875Z,28.95
2022-08-26T23:29:02.849Z,28.81
2022-08-26T23:34:06.599Z,28.65
2022-08-26T23:39:12.095Z,28.51
2022-08-26T23:44:15.673Z,28.66
2022-08-26T23:49:19.241Z,28.60
2022-08-26T23:54:24.479Z,28.38
2022-08-26T23:59:28.220Z,28.31
